Time Latitude Longitude Accuracy (66% radius in meters) Altitude (meters) Speed (km/hour) Bearing (degrees) Battery (%) GPS flag
11:55:06 57.204461 60.120970 0 0 0 0 1 delete
11:54:47 57.204409 60.121120 0 0 0 0 1 delete
11:53:08 57.204376 60.120958 0 0 0 0 1 delete
11:52:32 57.204307 60.121076 0 0 0 0 1 delete
11:50:53 57.204350 60.121221 0 0 0 0 1 delete
11:49:01 57.204398 60.121070 0 0 0 0 1 delete
11:48:35 57.204476 60.120986 0 0 0 0 1 delete
11:46:19 57.204558 60.120903 0 0 0 0 1 delete
11:45:46 57.204489 60.120781 0 0 0 0 1 delete
11:45:41 57.204430 60.120610 0 0 0 0 1 delete
11:45:38 57.204424 60.120442 0 0 0 0 1 delete
11:45:34 57.204429 60.120229 0 0 0 0 1 delete
11:45:30 57.204430 60.120061 0 0 0 0 1 delete
11:45:26 57.204372 60.119895 0 0 0 0 1 delete
11:45:22 57.204318 60.119733 0 0 0 0 1 delete
11:45:18 57.204257 60.119568 0 0 0 0 1 delete
11:45:14 57.204216 60.119418 0 0 0 0 1 delete
11:45:09 57.204157 60.119268 0 0 0 0 1 delete
11:45:05 57.204076 60.119170 0 0 0 0 1 delete
11:45:00 57.203986 60.119083 0 0 0 0 1 delete
11:44:57 57.203910 60.118995 0 0 0 0 1 delete
11:44:43 57.203846 60.118836 0 0 0 0 1 delete
11:44:33 57.203851 60.118665 0 0 0 0 1 delete
11:44:29 57.203886 60.118492 0 0 0 0 1 delete
11:44:25 57.203916 60.118307 0 0 0 0 1 delete
11:44:18 57.203977 60.118154 0 0 0 0 1 delete
11:44:13 57.204060 60.118063 0 0 0 0 1 delete
11:44:09 57.204125 60.117938 0 0 0 0 1 delete
11:44:03 57.204198 60.117793 0 0 0 0 1 delete
11:43:59 57.204279 60.117661 0 0 0 0 1 delete
11:43:54 57.204355 60.117553 0 0 0 0 1 delete
11:43:50 57.204443 60.117465 0 0 0 0 1 delete
11:43:46 57.204550 60.117435 0 0 0 0 1 delete
11:43:43 57.204664 60.117403 0 0 0 0 1 delete
11:43:41 57.204762 60.117434 0 0 0 0 1 delete
11:43:39 57.204866 60.117491 0 0 0 0 1 delete
11:43:36 57.204952 60.117547 0 0 0 0 1 delete
11:43:32 57.205060 60.117579 0 0 0 0 1 delete
11:43:25 57.205173 60.117509 0 0 0 0 1 delete
11:43:18 57.205202 60.117344 0 0 0 0 1 delete
11:42:42 57.205289 60.117223 0 0 0 0 1 delete
11:42:38 57.205373 60.117150 0 0 0 0 1 delete
11:42:33 57.205450 60.117018 0 0 0 0 1 delete
11:42:30 57.205567 60.116947 0 0 0 0 1 delete
11:42:28 57.205680 60.116947 0 0 0 0 1 delete
11:42:26 57.205814 60.116944 0 0 0 0 1 delete
11:42:24 57.205919 60.116957 0 0 0 0 1 delete
11:42:22 57.206019 60.116979 0 0 0 0 1 delete
11:42:20 57.206145 60.117009 0 0 0 0 1 delete
11:42:17 57.206278 60.117084 0 0 0 0 1 delete